sensor_id;sensor_type;location;lat;lon;timestamp;pressure;altitude;pressure_sealevel;temperature
11321;BMP180;5715;48.234;14.320;2022-12-16T00:02:28;96980.00;;;9.10
11321;BMP180;5715;48.234;14.320;2022-12-16T00:05:17;96974.00;;;8.90
11321;BMP180;5715;48.234;14.320;2022-12-16T00:08:06;96972.00;;;8.90
11321;BMP180;5715;48.234;14.320;2022-12-16T00:10:58;96972.00;;;9.30
11321;BMP180;5715;48.234;14.320;2022-12-16T00:13:46;96978.00;;;9.70
11321;BMP180;5715;48.234;14.320;2022-12-16T00:16:34;96993.00;;;9.20
11321;BMP180;5715;48.234;14.320;2022-12-16T00:19:22;96976.00;;;8.90
11321;BMP180;5715;48.234;14.320;2022-12-16T00:22:10;96973.00;;;9.10
11321;BMP180;5715;48.234;14.320;2022-12-16T00:24:58;96972.00;;;9.40
11321;BMP180;5715;48.234;14.320;2022-12-16T00:27:45;96975.00;;;9.20
11321;BMP180;5715;48.234;14.320;2022-12-16T00:30:33;96984.00;;;9.40
11321;BMP180;5715;48.234;14.320;2022-12-16T00:33:24;96986.00;;;9.30
11321;BMP180;5715;48.234;14.320;2022-12-16T00:36:12;96985.00;;;9.30
11321;BMP180;5715;48.234;14.320;2022-12-16T00:39:01;96967.00;;;9.20
11321;BMP180;5715;48.234;14.320;2022-12-16T00:41:50;96987.00;;;9.20
11321;BMP180;5715;48.234;14.320;2022-12-16T00:44:38;97004.00;;;9.30
11321;BMP180;5715;48.234;14.320;2022-12-16T00:47:25;97006.00;;;9.20
11321;BMP180;5715;48.234;14.320;2022-12-16T00:50:13;96996.00;;;9.40
11321;BMP180;5715;48.234;14.320;2022-12-16T00:53:01;97005.00;;;9.50
11321;BMP180;5715;48.234;14.320;2022-12-16T00:55:49;97011.00;;;9.50
11321;BMP180;5715;48.234;14.320;2022-12-16T00:58:38;97022.00;;;9.00
11321;BMP180;5715;48.234;14.320;2022-12-16T01:01:25;97019.00;;;9.50
11321;BMP180;5715;48.234;14.320;2022-12-16T01:04:13;97036.00;;;9.40
11321;BMP180;5715;48.234;14.320;2022-12-16T01:07:01;97031.00;;;9.60
11321;BMP180;5715;48.234;14.320;2022-12-16T01:09:48;97034.00;;;9.10
11321;BMP180;5715;48.234;14.320;2022-12-16T01:12:37;97034.00;;;9.20
11321;BMP180;5715;48.234;14.320;2022-12-16T01:15:25;97027.00;;;9.30
11321;BMP180;5715;48.234;14.320;2022-12-16T01:18:14;97023.00;;;9.10
11321;BMP180;5715;48.234;14.320;2022-12-16T01:21:07;97026.00;;;9.50
11321;BMP180;5715;48.234;14.320;2022-12-16T01:23:57;97031.00;;;9.40
11321;BMP180;5715;48.234;14.320;2022-12-16T01:26:45;97033.00;;;9.40
11321;BMP180;5715;48.234;14.320;2022-12-16T01:29:33;97028.00;;;9.50
11321;BMP180;5715;48.234;14.320;2022-12-16T01:32:21;97046.00;;;9.50
11321;BMP180;5715;48.234;14.320;2022-12-16T01:35:09;97033.00;;;9.70
11321;BMP180;5715;48.234;14.320;2022-12-16T01:38:16;97027.00;;;9.50
11321;BMP180;5715;48.234;14.320;2022-12-16T01:41:05;97008.00;;;9.60
11321;BMP180;5715;48.234;14.320;2022-12-16T01:44:12;97016.00;;;9.60
11321;BMP180;5715;48.234;14.320;2022-12-16T01:47:04;97015.00;;;9.50
11321;BMP180;5715;48.234;14.320;2022-12-16T01:50:10;97003.00;;;9.60
11321;BMP180;5715;48.234;14.320;2022-12-16T01:53:03;96996.00;;;9.60
11321;BMP180;5715;48.234;14.320;2022-12-16T01:55:54;96990.00;;;9.60
11321;BMP180;5715;48.234;14.320;2022-12-16T01:58:44;96978.00;;;9.30
11321;BMP180;5715;48.234;14.320;2022-12-16T02:01:32;96988.00;;;9.50
11321;BMP180;5715;48.234;14.320;2022-12-16T02:04:20;96986.00;;;9.40
11321;BMP180;5715;48.234;14.320;2022-12-16T02:07:07;96992.00;;;9.60
11321;BMP180;5715;48.234;14.320;2022-12-16T02:09:56;96987.00;;;9.70
11321;BMP180;5715;48.234;14.320;2022-12-16T02:13:11;96996.00;;;9.70
11321;BMP180;5715;48.234;14.320;2022-12-16T02:16:31;97008.00;;;9.60
11321;BMP180;5715;48.234;14.320;2022-12-16T02:39:50;96987.00;;;10.00
11321;BMP180;5715;48.234;14.320;2022-12-16T02:43:16;96996.00;;;10.00
11321;BMP180;5715;48.234;14.320;2022-12-16T02:46:07;97007.00;;;10.00
11321;BMP180;5715;48.234;14.320;2022-12-16T02:48:56;97029.00;;;10.00
11321;BMP180;5715;48.234;14.320;2022-12-16T02:51:44;97026.00;;;9.90
11321;BMP180;5715;48.234;14.320;2022-12-16T02:54:31;97037.00;;;9.90
11321;BMP180;5715;48.234;14.320;2022-12-16T02:58:05;97022.00;;;10.10
11321;BMP180;5715;48.234;14.320;2022-12-16T03:05:19;97030.00;;;10.00
11321;BMP180;5715;48.234;14.320;2022-12-16T03:08:35;97041.00;;;10.00
11321;BMP180;5715;48.234;14.320;2022-12-16T03:11:28;97049.00;;;10.00
11321;BMP180;5715;48.234;14.320;2022-12-16T03:14:19;97059.00;;;10.00
11321;BMP180;5715;48.234;14.320;2022-12-16T03:17:12;97071.00;;;9.90
11321;BMP180;5715;48.234;14.320;2022-12-16T03:20:17;97068.00;;;9.90
11321;BMP180;5715;48.234;14.320;2022-12-16T03:23:13;97074.00;;;9.80
11321;BMP180;5715;48.234;14.320;2022-12-16T03:26:09;97062.00;;;9.80
11321;BMP180;5715;48.234;14.320;2022-12-16T03:29:17;97073.00;;;9.80
11321;BMP180;5715;48.234;14.320;2022-12-16T03:32:22;97080.00;;;9.80
11321;BMP180;5715;48.234;14.320;2022-12-16T03:35:26;97071.00;;;10.00
11321;BMP180;5715;48.234;14.320;2022-12-16T03:38:16;97078.00;;;9.90
11321;BMP180;5715;48.234;14.320;2022-12-16T03:41:06;97072.00;;;9.90
11321;BMP180;5715;48.234;14.320;2022-12-16T03:43:54;97066.00;;;9.60
11321;BMP180;5715;48.234;14.320;2022-12-16T03:46:42;97067.00;;;9.90
11321;BMP180;5715;48.234;14.320;2022-12-16T03:49:30;97067.00;;;9.80
11321;BMP180;5715;48.234;14.320;2022-12-16T03:52:17;97065.00;;;9.80
11321;BMP180;5715;48.234;14.320;2022-12-16T03:55:05;97063.00;;;9.40
11321;BMP180;5715;48.234;14.320;2022-12-16T03:57:53;97075.00;;;9.60
11321;BMP180;5715;48.234;14.320;2022-12-16T04:00:41;97072.00;;;9.80
11321;BMP180;5715;48.234;14.320;2022-12-16T04:03:29;97082.00;;;9.80
11321;BMP180;5715;48.234;14.320;2022-12-16T04:06:17;97082.00;;;9.80
11321;BMP180;5715;48.234;14.320;2022-12-16T04:09:05;97090.00;;;9.60
11321;BMP180;5715;48.234;14.320;2022-12-16T04:11:52;97093.00;;;9.70
11321;BMP180;5715;48.234;14.320;2022-12-16T04:14:59;97083.00;;;9.70
11321;BMP180;5715;48.234;14.320;2022-12-16T04:18:15;97097.00;;;9.70
11321;BMP180;5715;48.234;14.320;2022-12-16T04:21:21;97089.00;;;9.70
11321;BMP180;5715;48.234;14.320;2022-12-16T04:24:29;97090.00;;;9.70
11321;BMP180;5715;48.234;14.320;2022-12-16T04:27:17;97108.00;;;9.70
11321;BMP180;5715;48.234;14.320;2022-12-16T04:30:17;97102.00;;;9.70
11321;BMP180;5715;48.234;14.320;2022-12-16T04:33:09;97111.00;;;9.60
11321;BMP180;5715;48.234;14.320;2022-12-16T04:36:17;97118.00;;;9.50
11321;BMP180;5715;48.234;14.320;2022-12-16T04:39:24;97123.00;;;9.40
11321;BMP180;5715;48.234;14.320;2022-12-16T04:42:31;97137.00;;;9.60
11321;BMP180;5715;48.234;14.320;2022-12-16T04:45:38;97149.00;;;9.40
11321;BMP180;5715;48.234;14.320;2022-12-16T04:48:44;97154.00;;;9.40
11321;BMP180;5715;48.234;14.320;2022-12-16T04:51:51;97162.00;;;9.40
11321;BMP180;5715;48.234;14.320;2022-12-16T04:54:57;97170.00;;;9.30
11321;BMP180;5715;48.234;14.320;2022-12-16T04:58:04;97172.00;;;9.40
11321;BMP180;5715;48.234;14.320;2022-12-16T05:01:10;97178.00;;;9.40
11321;BMP180;5715;48.234;14.320;2022-12-16T05:04:16;97182.00;;;9.40
11321;BMP180;5715;48.234;14.320;2022-12-16T05:07:23;97183.00;;;9.30
11321;BMP180;5715;48.234;14.320;2022-12-16T05:10:28;97186.00;;;9.40
11321;BMP180;5715;48.234;14.320;2022-12-16T05:13:35;97185.00;;;9.40
11321;BMP180;5715;48.234;14.320;2022-12-16T05:16:41;97200.00;;;9.30
11321;BMP180;5715;48.234;14.320;2022-12-16T05:19:47;97204.00;;;9.40
11321;BMP180;5715;48.234;14.320;2022-12-16T05:22:56;97212.00;;;9.50
11321;BMP180;5715;48.234;14.320;2022-12-16T05:26:03;97214.00;;;9.40
11321;BMP180;5715;48.234;14.320;2022-12-16T05:29:09;97213.00;;;9.50
11321;BMP180;5715;48.234;14.320;2022-12-16T05:32:15;97204.00;;;9.40
11321;BMP180;5715;48.234;14.320;2022-12-16T05:35:22;97196.00;;;9.50
11321;BMP180;5715;48.234;14.320;2022-12-16T05:38:29;97190.00;;;9.50
11321;BMP180;5715;48.234;14.320;2022-12-16T05:41:35;97192.00;;;9.50
11321;BMP180;5715;48.234;14.320;2022-12-16T05:44:41;97182.00;;;9.50
11321;BMP180;5715;48.234;14.320;2022-12-16T05:47:48;97188.00;;;9.50
11321;BMP180;5715;48.234;14.320;2022-12-16T05:50:54;97196.00;;;9.50
11321;BMP180;5715;48.234;14.320;2022-12-16T05:54:00;97201.00;;;9.40
11321;BMP180;5715;48.234;14.320;2022-12-16T05:57:06;97211.00;;;9.20
11321;BMP180;5715;48.234;14.320;2022-12-16T06:00:13;97222.00;;;9.30
11321;BMP180;5715;48.234;14.320;2022-12-16T06:03:30;97228.00;;;9.30
11321;BMP180;5715;48.234;14.320;2022-12-16T06:06:36;97234.00;;;9.40
11321;BMP180;5715;48.234;14.320;2022-12-16T06:09:43;97233.00;;;9.40
11321;BMP180;5715;48.234;14.320;2022-12-16T06:12:49;97238.00;;;9.40
11321;BMP180;5715;48.234;14.320;2022-12-16T06:15:55;97240.00;;;9.40
11321;BMP180;5715;48.234;14.320;2022-12-16T06:19:01;97257.00;;;9.40
11321;BMP180;5715;48.234;14.320;2022-12-16T06:22:08;97268.00;;;9.40
11321;BMP180;5715;48.234;14.320;2022-12-16T06:25:14;97267.00;;;9.50
11321;BMP180;5715;48.234;14.320;2022-12-16T06:28:20;97260.00;;;9.50
11321;BMP180;5715;48.234;14.320;2022-12-16T06:31:32;97280.00;;;9.30
11321;BMP180;5715;48.234;14.320;2022-12-16T06:34:38;97285.00;;;9.50
11321;BMP180;5715;48.234;14.320;2022-12-16T06:37:47;97291.00;;;9.40
11321;BMP180;5715;48.234;14.320;2022-12-16T06:40:53;97305.00;;;9.50
11321;BMP180;5715;48.234;14.320;2022-12-16T06:44:00;97300.00;;;9.40
11321;BMP180;5715;48.234;14.320;2022-12-16T06:47:06;97311.00;;;9.50
11321;BMP180;5715;48.234;14.320;2022-12-16T06:50:12;97320.00;;;9.30
11321;BMP180;5715;48.234;14.320;2022-12-16T06:53:18;97329.00;;;9.30
11321;BMP180;5715;48.234;14.320;2022-12-16T06:56:24;97335.00;;;9.30
11321;BMP180;5715;48.234;14.320;2022-12-16T06:59:31;97337.00;;;9.40
11321;BMP180;5715;48.234;14.320;2022-12-16T07:02:37;97349.00;;;9.40
11321;BMP180;5715;48.234;14.320;2022-12-16T07:05:43;97361.00;;;9.40
11321;BMP180;5715;48.234;14.320;2022-12-16T07:08:50;97369.00;;;9.40
11321;BMP180;5715;48.234;14.320;2022-12-16T07:11:56;97361.00;;;9.40
11321;BMP180;5715;48.234;14.320;2022-12-16T07:15:03;97377.00;;;9.60
11321;BMP180;5715;48.234;14.320;2022-12-16T07:18:09;97379.00;;;9.50
11321;BMP180;5715;48.234;14.320;2022-12-16T07:21:15;97382.00;;;9.70
11321;BMP180;5715;48.234;14.320;2022-12-16T07:24:21;97386.00;;;9.60
11321;BMP180;5715;48.234;14.320;2022-12-16T07:27:38;97396.00;;;9.80
11321;BMP180;5715;48.234;14.320;2022-12-16T07:30:44;97404.00;;;9.80
11321;BMP180;5715;48.234;14.320;2022-12-16T07:33:50;97415.00;;;9.70
11321;BMP180;5715;48.234;14.320;2022-12-16T07:36:57;97406.00;;;9.80
11321;BMP180;5715;48.234;14.320;2022-12-16T07:40:04;97425.00;;;9.70
11321;BMP180;5715;48.234;14.320;2022-12-16T07:43:10;97427.00;;;9.70
11321;BMP180;5715;48.234;14.320;2022-12-16T07:46:16;97425.00;;;9.70
11321;BMP180;5715;48.234;14.320;2022-12-16T07:49:23;97429.00;;;9.70
11321;BMP180;5715;48.234;14.320;2022-12-16T07:52:29;97437.00;;;9.80
11321;BMP180;5715;48.234;14.320;2022-12-16T07:55:35;97459.00;;;9.80
11321;BMP180;5715;48.234;14.320;2022-12-16T07:58:41;97460.00;;;9.70
11321;BMP180;5715;48.234;14.320;2022-12-16T08:01:47;97463.00;;;9.80
11321;BMP180;5715;48.234;14.320;2022-12-16T08:04:54;97464.00;;;9.80
11321;BMP180;5715;48.234;14.320;2022-12-16T08:08:00;97482.00;;;9.80
11321;BMP180;5715;48.234;14.320;2022-12-16T08:11:07;97479.00;;;9.80
11321;BMP180;5715;48.234;14.320;2022-12-16T08:14:13;97471.00;;;9.80
11321;BMP180;5715;48.234;14.320;2022-12-16T08:17:19;97468.00;;;9.80
11321;BMP180;5715;48.234;14.320;2022-12-16T08:20:26;97474.00;;;9.90
11321;BMP180;5715;48.234;14.320;2022-12-16T08:23:32;97466.00;;;9.90
11321;BMP180;5715;48.234;14.320;2022-12-16T08:26:39;97481.00;;;9.80
11321;BMP180;5715;48.234;14.320;2022-12-16T08:29:46;97489.00;;;9.90
11321;BMP180;5715;48.234;14.320;2022-12-16T08:32:52;97491.00;;;9.90
11321;BMP180;5715;48.234;14.320;2022-12-16T08:36:06;97503.00;;;9.80
11321;BMP180;5715;48.234;14.320;2022-12-16T08:39:12;97511.00;;;9.80
11321;BMP180;5715;48.234;14.320;2022-12-16T08:42:18;97526.00;;;9.90
11321;BMP180;5715;48.234;14.320;2022-12-16T08:45:24;97528.00;;;9.90
11321;BMP180;5715;48.234;14.320;2022-12-16T08:48:31;97527.00;;;10.00
11321;BMP180;5715;48.234;14.320;2022-12-16T08:51:37;97528.00;;;10.00
11321;BMP180;5715;48.234;14.320;2022-12-16T08:54:43;97531.00;;;10.00
11321;BMP180;5715;48.234;14.320;2022-12-16T08:57:55;97536.00;;;10.20
11321;BMP180;5715;48.234;14.320;2022-12-16T09:01:01;97544.00;;;10.20
11321;BMP180;5715;48.234;14.320;2022-12-16T09:04:10;97552.00;;;10.20
11321;BMP180;5715;48.234;14.320;2022-12-16T09:07:16;97554.00;;;10.20
11321;BMP180;5715;48.234;14.320;2022-12-16T09:10:23;97556.00;;;10.20
11321;BMP180;5715;48.234;14.320;2022-12-16T09:13:29;97559.00;;;10.20
11321;BMP180;5715;48.234;14.320;2022-12-16T09:16:37;97570.00;;;10.30
11321;BMP180;5715;48.234;14.320;2022-12-16T09:19:43;97572.00;;;10.20
11321;BMP180;5715;48.234;14.320;2022-12-16T09:22:49;97578.00;;;10.10
11321;BMP180;5715;48.234;14.320;2022-12-16T09:25:58;97575.00;;;10.30
11321;BMP180;5715;48.234;14.320;2022-12-16T09:29:04;97576.00;;;10.20
11321;BMP180;5715;48.234;14.320;2022-12-16T09:32:10;97585.00;;;10.20
11321;BMP180;5715;48.234;14.320;2022-12-16T09:35:16;97581.00;;;10.40
11321;BMP180;5715;48.234;14.320;2022-12-16T09:38:22;97596.00;;;10.10
11321;BMP180;5715;48.234;14.320;2022-12-16T09:41:43;97594.00;;;10.30
11321;BMP180;5715;48.234;14.320;2022-12-16T09:45:38;97601.00;;;10.30
11321;BMP180;5715;48.234;14.320;2022-12-16T09:52:21;97593.00;;;10.80
11321;BMP180;5715;48.234;14.320;2022-12-16T09:55:37;97604.00;;;10.80
11321;BMP180;5715;48.234;14.320;2022-12-16T09:59:10;97598.00;;;11.00
11321;BMP180;5715;48.234;14.320;2022-12-16T10:02:18;97600.00;;;11.10
11321;BMP180;5715;48.234;14.320;2022-12-16T10:06:41;97602.00;;;11.00
11321;BMP180;5715;48.234;14.320;2022-12-16T10:16:50;97616.00;;;10.90
11321;BMP180;5715;48.234;14.320;2022-12-16T10:20:32;97611.00;;;10.90
11321;BMP180;5715;48.234;14.320;2022-12-16T10:27:23;97631.00;;;10.90
11321;BMP180;5715;48.234;14.320;2022-12-16T10:30:35;97625.00;;;10.90
11321;BMP180;5715;48.234;14.320;2022-12-16T10:33:46;97633.00;;;10.80
11321;BMP180;5715;48.234;14.320;2022-12-16T10:36:56;97636.00;;;10.80
11321;BMP180;5715;48.234;14.320;2022-12-16T10:40:17;97643.00;;;10.90
11321;BMP180;5715;48.234;14.320;2022-12-16T10:43:34;97638.00;;;10.70
11321;BMP180;5715;48.234;14.320;2022-12-16T10:46:42;97644.00;;;10.60
11321;BMP180;5715;48.234;14.320;2022-12-16T10:49:56;97642.00;;;10.70
11321;BMP180;5715;48.234;14.320;2022-12-16T10:53:14;97645.00;;;10.80
11321;BMP180;5715;48.234;14.320;2022-12-16T10:56:52;97634.00;;;10.80
11321;BMP180;5715;48.234;14.320;2022-12-16T11:00:14;97644.00;;;10.60
11321;BMP180;5715;48.234;14.320;2022-12-16T11:03:25;97643.00;;;10.80
11321;BMP180;5715;48.234;14.320;2022-12-16T11:06:40;97640.00;;;10.80
11321;BMP180;5715;48.234;14.320;2022-12-16T11:09:46;97636.00;;;11.10
11321;BMP180;5715;48.234;14.320;2022-12-16T11:12:52;97642.00;;;11.10
11321;BMP180;5715;48.234;14.320;2022-12-16T11:16:27;97634.00;;;11.40
11321;BMP180;5715;48.234;14.320;2022-12-16T11:19:34;97631.00;;;11.30
11321;BMP180;5715;48.234;14.320;2022-12-16T11:22:40;97625.00;;;11.40
11321;BMP180;5715;48.234;14.320;2022-12-16T11:26:04;97626.00;;;11.40
11321;BMP180;5715;48.234;14.320;2022-12-16T11:29:20;97619.00;;;11.30
11321;BMP180;5715;48.234;14.320;2022-12-16T11:32:27;97626.00;;;11.20
11321;BMP180;5715;48.234;14.320;2022-12-16T11:35:39;97625.00;;;11.10
11321;BMP180;5715;48.234;14.320;2022-12-16T11:38:49;97632.00;;;11.00
11321;BMP180;5715;48.234;14.320;2022-12-16T11:41:59;97624.00;;;10.90
11321;BMP180;5715;48.234;14.320;2022-12-16T11:45:25;97617.00;;;10.90
11321;BMP180;5715;48.234;14.320;2022-12-16T11:48:51;97632.00;;;10.70
11321;BMP180;5715;48.234;14.320;2022-12-16T11:52:03;97635.00;;;10.60
11321;BMP180;5715;48.234;14.320;2022-12-16T11:55:27;97641.00;;;10.40
11321;BMP180;5715;48.234;14.320;2022-12-16T11:59:01;97646.00;;;10.40
11321;BMP180;5715;48.234;14.320;2022-12-16T12:02:24;97655.00;;;10.50
11321;BMP180;5715;48.234;14.320;2022-12-16T12:09:18;97665.00;;;10.20
11321;BMP180;5715;48.234;14.320;2022-12-16T12:12:56;97666.00;;;10.40
11321;BMP180;5715;48.234;14.320;2022-12-16T12:20:03;97669.00;;;10.70
11321;BMP180;5715;48.234;14.320;2022-12-16T12:30:20;97669.00;;;10.70
11321;BMP180;5715;48.234;14.320;2022-12-16T12:37:37;97669.00;;;10.60
11321;BMP180;5715;48.234;14.320;2022-12-16T12:41:17;97680.00;;;10.40
11321;BMP180;5715;48.234;14.320;2022-12-16T12:44:33;97683.00;;;10.50
11321;BMP180;5715;48.234;14.320;2022-12-16T12:48:04;97692.00;;;10.60
11321;BMP180;5715;48.234;14.320;2022-12-16T12:55:09;97700.00;;;10.40
11321;BMP180;5715;48.234;14.320;2022-12-16T12:58:18;97710.00;;;10.40
11321;BMP180;5715;48.234;14.320;2022-12-16T13:01:30;97714.00;;;10.40
11321;BMP180;5715;48.234;14.320;2022-12-16T13:04:40;97722.00;;;10.40
11321;BMP180;5715;48.234;14.320;2022-12-16T13:07:47;97727.00;;;10.40
11321;BMP180;5715;48.234;14.320;2022-12-16T13:11:12;97723.00;;;10.40
11321;BMP180;5715;48.234;14.320;2022-12-16T13:18:22;97731.00;;;10.50
11321;BMP180;5715;48.234;14.320;2022-12-16T13:21:47;97728.00;;;10.50
11321;BMP180;5715;48.234;14.320;2022-12-16T13:24:53;97743.00;;;10.50
11321;BMP180;5715;48.234;14.320;2022-12-16T13:28:00;97750.00;;;10.50
11321;BMP180;5715;48.234;14.320;2022-12-16T13:31:08;97744.00;;;10.40
11321;BMP180;5715;48.234;14.320;2022-12-16T13:37:25;97752.00;;;10.20
11321;BMP180;5715;48.234;14.320;2022-12-16T13:40:48;97754.00;;;10.20
11321;BMP180;5715;48.234;14.320;2022-12-16T13:43:59;97768.00;;;10.30
11321;BMP180;5715;48.234;14.320;2022-12-16T13:50:50;97769.00;;;10.30
11321;BMP180;5715;48.234;14.320;2022-12-16T13:54:07;97773.00;;;10.30
11321;BMP180;5715;48.234;14.320;2022-12-16T13:57:21;97779.00;;;10.30
11321;BMP180;5715;48.234;14.320;2022-12-16T14:00:35;97776.00;;;10.30
11321;BMP180;5715;48.234;14.320;2022-12-16T14:03:49;97781.00;;;10.20
11321;BMP180;5715;48.234;14.320;2022-12-16T14:07:00;97782.00;;;10.20
11321;BMP180;5715;48.234;14.320;2022-12-16T14:10:30;97791.00;;;10.20
11321;BMP180;5715;48.234;14.320;2022-12-16T14:14:05;97798.00;;;10.10
11321;BMP180;5715;48.234;14.320;2022-12-16T14:17:41;97801.00;;;10.10
11321;BMP180;5715;48.234;14.320;2022-12-16T14:20:58;97807.00;;;10.10
11321;BMP180;5715;48.234;14.320;2022-12-16T14:24:23;97810.00;;;10.00
11321;BMP180;5715;48.234;14.320;2022-12-16T14:27:33;97818.00;;;9.90
11321;BMP180;5715;48.234;14.320;2022-12-16T14:30:41;97830.00;;;9.90
11321;BMP180;5715;48.234;14.320;2022-12-16T14:33:52;97835.00;;;9.80
11321;BMP180;5715;48.234;14.320;2022-12-16T14:36:59;97832.00;;;9.80
11321;BMP180;5715;48.234;14.320;2022-12-16T14:40:29;97837.00;;;9.90
11321;BMP180;5715;48.234;14.320;2022-12-16T14:43:35;97837.00;;;9.90
11321;BMP180;5715;48.234;14.320;2022-12-16T14:46:48;97839.00;;;9.90
11321;BMP180;5715;48.234;14.320;2022-12-16T14:49:54;97839.00;;;9.80
11321;BMP180;5715;48.234;14.320;2022-12-16T14:53:21;97847.00;;;9.80
11321;BMP180;5715;48.234;14.320;2022-12-16T14:56:29;97857.00;;;9.70
11321;BMP180;5715;48.234;14.320;2022-12-16T14:59:35;97868.00;;;9.70
11321;BMP180;5715;48.234;14.320;2022-12-16T15:02:46;97862.00;;;9.80
11321;BMP180;5715;48.234;14.320;2022-12-16T15:05:55;97859.00;;;9.70
11321;BMP180;5715;48.234;14.320;2022-12-16T15:09:04;97870.00;;;9.70
11321;BMP180;5715;48.234;14.320;2022-12-16T15:12:13;97883.00;;;9.70
11321;BMP180;5715;48.234;14.320;2022-12-16T15:15:34;97875.00;;;9.80
11321;BMP180;5715;48.234;14.320;2022-12-16T15:18:56;97878.00;;;9.70
11321;BMP180;5715;48.234;14.320;2022-12-16T15:22:03;97886.00;;;9.70
11321;BMP180;5715;48.234;14.320;2022-12-16T15:25:25;97886.00;;;9.70
11321;BMP180;5715;48.234;14.320;2022-12-16T15:31:40;97899.00;;;9.70
11321;BMP180;5715;48.234;14.320;2022-12-16T15:34:49;97901.00;;;9.70
11321;BMP180;5715;48.234;14.320;2022-12-16T15:37:56;97901.00;;;9.70
11321;BMP180;5715;48.234;14.320;2022-12-16T15:41:05;97911.00;;;9.60
11321;BMP180;5715;48.234;14.320;2022-12-16T15:44:29;97915.00;;;9.60
11321;BMP180;5715;48.234;14.320;2022-12-16T15:47:37;97915.00;;;9.60
11321;BMP180;5715;48.234;14.320;2022-12-16T15:50:52;97924.00;;;9.50
11321;BMP180;5715;48.234;14.320;2022-12-16T15:54:02;97931.00;;;9.30
11321;BMP180;5715;48.234;14.320;2022-12-16T15:57:28;97940.00;;;9.30
11321;BMP180;5715;48.234;14.320;2022-12-16T16:00:35;97938.00;;;9.40
11321;BMP180;5715;48.234;14.320;2022-12-16T16:03:49;97934.00;;;9.30
11321;BMP180;5715;48.234;14.320;2022-12-16T16:06:56;97940.00;;;9.30
11321;BMP180;5715;48.234;14.320;2022-12-16T16:10:21;97941.00;;;9.30
11321;BMP180;5715;48.234;14.320;2022-12-16T16:13:28;97951.00;;;9.50
11321;BMP180;5715;48.234;14.320;2022-12-16T16:16:34;97959.00;;;9.50
11321;BMP180;5715;48.234;14.320;2022-12-16T16:19:41;97963.00;;;9.40
11321;BMP180;5715;48.234;14.320;2022-12-16T16:22:50;97961.00;;;9.40
11321;BMP180;5715;48.234;14.320;2022-12-16T16:25:56;97968.00;;;9.40
11321;BMP180;5715;48.234;14.320;2022-12-16T16:29:03;97970.00;;;9.50
11321;BMP180;5715;48.234;14.320;2022-12-16T16:32:10;97973.00;;;9.50
11321;BMP180;5715;48.234;14.320;2022-12-16T16:35:16;97976.00;;;9.40
11321;BMP180;5715;48.234;14.320;2022-12-16T16:38:22;97982.00;;;9.60
11321;BMP180;5715;48.234;14.320;2022-12-16T16:41:28;97988.00;;;9.50
11321;BMP180;5715;48.234;14.320;2022-12-16T16:44:35;97984.00;;;9.40
11321;BMP180;5715;48.234;14.320;2022-12-16T16:47:41;97986.00;;;9.50
11321;BMP180;5715;48.234;14.320;2022-12-16T16:50:47;97992.00;;;9.50
11321;BMP180;5715;48.234;14.320;2022-12-16T16:53:56;98003.00;;;9.50
11321;BMP180;5715;48.234;14.320;2022-12-16T16:57:02;98003.00;;;9.50
11321;BMP180;5715;48.234;14.320;2022-12-16T17:00:09;98004.00;;;9.50
11321;BMP180;5715;48.234;14.320;2022-12-16T17:03:16;98027.00;;;9.40
11321;BMP180;5715;48.234;14.320;2022-12-16T17:06:24;98024.00;;;9.60
11321;BMP180;5715;48.234;14.320;2022-12-16T17:09:30;98022.00;;;9.30
11321;BMP180;5715;48.234;14.320;2022-12-16T17:12:36;98022.00;;;9.40
11321;BMP180;5715;48.234;14.320;2022-12-16T17:15:50;98022.00;;;9.40
11321;BMP180;5715;48.234;14.320;2022-12-16T17:18:57;98033.00;;;9.30
11321;BMP180;5715;48.234;14.320;2022-12-16T17:22:04;98042.00;;;9.50
11321;BMP180;5715;48.234;14.320;2022-12-16T17:25:11;98032.00;;;9.40
11321;BMP180;5715;48.234;14.320;2022-12-16T17:28:18;98048.00;;;9.50
11321;BMP180;5715;48.234;14.320;2022-12-16T17:31:24;98048.00;;;9.50
11321;BMP180;5715;48.234;14.320;2022-12-16T17:34:30;98050.00;;;9.50
11321;BMP180;5715;48.234;14.320;2022-12-16T17:37:39;98046.00;;;9.60
11321;BMP180;5715;48.234;14.320;2022-12-16T17:40:51;98059.00;;;9.40
11321;BMP180;5715;48.234;14.320;2022-12-16T17:43:57;98072.00;;;9.40
11321;BMP180;5715;48.234;14.320;2022-12-16T17:47:04;98071.00;;;9.50
11321;BMP180;5715;48.234;14.320;2022-12-16T17:50:10;98073.00;;;9.40
11321;BMP180;5715;48.234;14.320;2022-12-16T17:53:16;98080.00;;;9.30
11321;BMP180;5715;48.234;14.320;2022-12-16T17:56:23;98079.00;;;9.40
11321;BMP180;5715;48.234;14.320;2022-12-16T17:59:29;98077.00;;;9.60
11321;BMP180;5715;48.234;14.320;2022-12-16T18:02:41;98082.00;;;9.40
11321;BMP180;5715;48.234;14.320;2022-12-16T18:05:47;98088.00;;;9.40
11321;BMP180;5715;48.234;14.320;2022-12-16T18:08:53;98086.00;;;9.20
11321;BMP180;5715;48.234;14.320;2022-12-16T18:12:00;98091.00;;;9.40
11321;BMP180;5715;48.234;14.320;2022-12-16T18:15:07;98097.00;;;9.30
11321;BMP180;5715;48.234;14.320;2022-12-16T18:18:13;98099.00;;;9.20
11321;BMP180;5715;48.234;14.320;2022-12-16T18:21:20;98109.00;;;9.20
11321;BMP180;5715;48.234;14.320;2022-12-16T18:24:26;98110.00;;;9.20
11321;BMP180;5715;48.234;14.320;2022-12-16T18:27:35;98114.00;;;9.20
11321;BMP180;5715;48.234;14.320;2022-12-16T18:30:41;98119.00;;;9.00
11321;BMP180;5715;48.234;14.320;2022-12-16T18:33:48;98122.00;;;9.20
11321;BMP180;5715;48.234;14.320;2022-12-16T18:36:54;98138.00;;;9.20
11321;BMP180;5715;48.234;14.320;2022-12-16T18:40:00;98134.00;;;9.30
11321;BMP180;5715;48.234;14.320;2022-12-16T18:43:09;98147.00;;;9.10
11321;BMP180;5715;48.234;14.320;2022-12-16T18:46:15;98139.00;;;9.10
11321;BMP180;5715;48.234;14.320;2022-12-16T18:49:21;98152.00;;;8.90
11321;BMP180;5715;48.234;14.320;2022-12-16T18:52:28;98149.00;;;9.10
11321;BMP180;5715;48.234;14.320;2022-12-16T18:55:35;98153.00;;;9.00
11321;BMP180;5715;48.234;14.320;2022-12-16T18:58:41;98162.00;;;9.20
11321;BMP180;5715;48.234;14.320;2022-12-16T19:01:48;98168.00;;;9.20
11321;BMP180;5715;48.234;14.320;2022-12-16T19:04:54;98171.00;;;9.30
11321;BMP180;5715;48.234;14.320;2022-12-16T19:08:00;98174.00;;;8.90
11321;BMP180;5715;48.234;14.320;2022-12-16T19:11:06;98170.00;;;8.90
11321;BMP180;5715;48.234;14.320;2022-12-16T19:14:13;98171.00;;;9.00
11321;BMP180;5715;48.234;14.320;2022-12-16T19:17:18;98179.00;;;9.00
11321;BMP180;5715;48.234;14.320;2022-12-16T19:20:25;98186.00;;;9.00
11321;BMP180;5715;48.234;14.320;2022-12-16T19:23:31;98190.00;;;8.90